Terminal Aerodrome Forecast
Issued by NWS Caribou, ME

Home | Current Version | Previous Version | Text Only | Print | Product List | Glossary On
Versions: 1 2 3 4 5 6 7 8 9 10 11 12 13 14 15 16 17
138
FTUS41 KCAR 230528
TAFBGR
TAF
KBGR 230528Z 2306/2406 00000KT P6SM BKN060
     FM231200 18005KT P6SM VCSH OVC050
     FM231800 18011G19KT P6SM -RA OVC060
     FM232200 18009KT P6SM VCSH BKN008
     FM240000 19007KT 2SM BR BKN003 OVC009=

USA.gov is the U.S. government's official web portal to all federal, state and local government web resources and services.